createdAt,value
2022-09-03T00:03:48.131Z,40.07
2022-09-03T00:18:50.353Z,39.3
2022-09-03T00:33:52.601Z,38.84
2022-09-03T00:48:55.615Z,38.43
2022-09-03T01:03:59.213Z,36.91
2022-09-03T01:19:01.517Z,35.72
2022-09-03T01:34:03.721Z,35.01
2022-09-03T01:49:05.923Z,34.13
2022-09-03T02:04:08.107Z,33.62
2022-09-03T02:19:10.331Z,32.61
2022-09-03T02:34:12.593Z,31.65
2022-09-03T02:49:14.964Z,31.83
2022-09-03T03:04:17.119Z,31
2022-09-03T03:19:19.321Z,30.27
2022-09-03T03:34:21.655Z,29.27
2022-09-03T03:49:23.823Z,28.87
2022-09-03T04:04:26.036Z,28.33
2022-09-03T04:19:28.328Z,28.07
2022-09-03T04:34:30.568Z,27.4
2022-09-03T04:49:32.795Z,26.81
2022-09-03T05:04:35.115Z,26.01
2022-09-03T05:19:37.446Z,25.35
2022-09-03T05:34:39.624Z,25.81
2022-09-03T05:49:41.875Z,25.31
2022-09-03T06:04:44.294Z,25.07
2022-09-03T06:19:46.566Z,25.29
2022-09-03T06:34:48.743Z,25.4
2022-09-03T06:49:50.936Z,25.35
2022-09-03T07:04:53.090Z,24.5
2022-09-03T07:19:56.548Z,24.42
2022-09-03T07:34:58.760Z,24.58
2022-09-03T07:50:00.981Z,24.36
2022-09-03T08:05:03.170Z,24.08
2022-09-03T08:20:05.529Z,23.57
2022-09-03T08:35:07.740Z,23.37
2022-09-03T08:50:10.099Z,23.38
2022-09-03T09:05:14.326Z,22.06
2022-09-03T09:20:16.821Z,21.68
2022-09-03T09:35:19.050Z,21.61
2022-09-03T09:50:26.036Z,21.71
2022-09-03T10:05:28.791Z,22.27
2022-09-03T10:20:31.110Z,22.02
2022-09-03T10:35:33.360Z,22.01
2022-09-03T10:50:35.548Z,20.73
2022-09-03T11:05:37.900Z,20.39
2022-09-03T11:20:40.093Z,19.73
2022-09-03T11:35:42.312Z,19.98
2022-09-03T11:50:44.700Z,20.41
2022-09-03T12:05:47.566Z,20.03
2022-09-03T12:20:49.807Z,20.57
2022-09-03T12:36:00.023Z,20.42
2022-09-03T12:51:47.949Z,20.1
2022-09-03T13:06:52.027Z,19.79
2022-09-03T13:21:54.198Z,20.06
2022-09-03T13:36:56.414Z,20.17
2022-09-03T13:51:58.662Z,19.66
2022-09-03T14:07:00.847Z,20.29
2022-09-03T14:22:03.007Z,20.05
2022-09-03T14:37:05.260Z,20.26
2022-09-03T14:52:07.657Z,20.31
2022-09-03T15:07:09.869Z,24
2022-09-03T15:22:12.080Z,23.43
2022-09-03T15:37:14.418Z,22.98
2022-09-03T15:52:16.612Z,21.86
2022-09-03T16:07:18.819Z,22.88
2022-09-03T16:22:21.008Z,23.48
2022-09-03T16:37:23.220Z,25.53
2022-09-03T16:52:37.863Z,25.53
2022-09-03T17:07:40.753Z,24.92
2022-09-03T17:22:43.013Z,25.5
2022-09-03T17:37:45.211Z,26.89
2022-09-03T17:52:47.566Z,27.88
2022-09-03T18:07:49.925Z,28.46
2022-09-03T18:22:52.087Z,29.06
2022-09-03T18:37:54.290Z,28.9
2022-09-03T18:52:56.570Z,29.45
2022-09-03T19:07:59.960Z,30.26
2022-09-03T19:23:02.461Z,31.17
2022-09-03T19:38:04.695Z,31.04
2022-09-03T19:53:07.115Z,31.99
2022-09-03T20:08:09.405Z,31.92
2022-09-03T20:23:11.638Z,32.25
2022-09-03T20:38:13.884Z,32.34
2022-09-03T20:53:16.110Z,31.9
2022-09-03T21:08:18.322Z,32.23
2022-09-03T21:23:20.526Z,32.6
2022-09-03T21:38:22.812Z,32
2022-09-03T21:53:25.091Z,32.37
2022-09-03T22:08:27.465Z,32.31
2022-09-03T22:23:29.803Z,32.44
2022-09-03T22:38:32.006Z,32.65
2022-09-03T22:53:34.388Z,32.14
2022-09-03T23:08:36.723Z,31.95
2022-09-03T23:23:39.197Z,31.36
2022-09-03T23:38:41.535Z,31.62
2022-09-03T23:53:43.932Z,31.97
